Time;durP1;ratioP1;P1;durP2;ratioP2;P2;SDS_P1;SDS_P2;PMS_P1;PMS_P2;Temp;Humidity;BMP_temperature;BMP_pressure;BME280_temperature;BME280_humidity;BME280_pressure;Samples;Min_cycle;Max_cycle;Signal;HPM_P1;HPM_P2
2023/06/09 00:03:07;;;;;;;0.08;0.00;;;;;;;24.33;62.33;101534.00;10434423;28;20386;-81
2023/06/09 00:08:09;;;;;;;0.30;0.10;;;;;;;24.30;61.46;101526.19;10458917;28;20060;-80
2023/06/09 00:13:11;;;;;;;0.05;0.00;;;;;;;20.53;77.32;101538.09;10446088;28;20048;-80
2023/06/09 00:18:15;;;;;;;0.40;0.38;;;;;;;19.68;88.84;101550.59;10441421;28;20135;-80
2023/06/09 00:23:17;;;;;;;0.10;0.10;;;;;;;19.56;91.53;101541.88;10433880;28;20048;-81
2023/06/09 00:28:19;;;;;;;0.45;0.22;;;;;;;19.28;92.89;101541.91;10452816;28;20047;-80
2023/06/09 00:33:20;;;;;;;0.15;0.08;;;;;;;19.31;93.98;101536.69;10424119;28;20140;-80
2023/06/09 00:38:23;;;;;;;0.00;0.00;;;;;;;18.89;96.36;101538.34;10453686;28;20050;-79
2023/06/09 00:43:25;;;;;;;1.67;0.80;;;;;;;18.85;96.90;101537.47;10440741;28;20071;-80
2023/06/09 00:48:27;;;;;;;1.20;0.05;;;;;;;18.97;96.77;101531.44;10431702;28;20439;-80
2023/06/09 00:53:29;;;;;;;0.17;0.17;;;;;;;18.89;97.95;101532.28;10450157;28;20048;-80
2023/06/09 00:58:31;;;;;;;0.03;0.03;;;;;;;19.06;97.70;101530.59;10428362;28;20045;-79
2023/06/09 01:03:33;;;;;;;0.25;0.20;;;;;;;18.93;98.84;101529.69;10439517;28;20052;-80
2023/06/09 01:08:44;;;;;;;2.33;0.75;;;;;;;18.64;100.00;101520.06;10432427;28;20076;-80
2023/06/09 01:14:13;;;;;;;0.52;0.43;;;;;;;18.27;100.00;101526.88;10451230;28;20045;-79
2023/06/09 01:19:40;;;;;;;0.55;0.55;;;;;;;17.95;100.00;101525.88;10457247;28;20053;-80
2023/06/09 01:25:04;;;;;;;0.15;0.10;;;;;;;18.40;100.00;101528.66;10455962;28;20136;-80
2023/06/09 01:30:09;;;;;;;0.25;0.25;;;;;;;18.19;100.00;101524.25;10480272;28;20059;-80
2023/06/09 01:35:11;;;;;;;0.20;0.10;;;;;;;18.17;100.00;101519.00;10460469;28;20053;-80
2023/06/09 01:40:13;;;;;;;0.10;0.08;;;;;;;18.14;100.00;101515.53;10456726;28;20412;-80
2023/06/09 01:45:15;;;;;;;0.00;0.00;;;;;;;17.89;100.00;101518.00;10462748;28;20423;-80
2023/06/09 01:50:36;;;;;;;0.13;0.10;;;;;;;17.79;100.00;101513.59;10475036;28;20041;-80
2023/06/09 01:55:44;;;;;;;0.00;0.00;;;;;;;17.74;100.00;101506.63;10436096;28;20493;-80
2023/06/09 02:00:48;;;;;;;1.02;0.45;;;;;;;17.70;100.00;101507.44;10453686;28;20037;-80
2023/06/09 02:05:53;;;;;;;0.25;0.10;;;;;;;17.59;100.00;101506.53;10443592;28;20048;-80
2023/06/09 02:10:55;;;;;;;0.30;0.20;;;;;;;17.85;100.00;101493.66;10466828;28;20048;-80
2023/06/09 02:15:56;;;;;;;0.28;0.28;;;;;;;17.82;100.00;101498.84;10451200;28;20049;-80
2023/06/09 02:20:58;;;;;;;0.10;0.10;;;;;;;17.81;100.00;101496.22;10434925;28;20386;-80
2023/06/09 02:26:00;;;;;;;0.30;0.30;;;;;;;17.72;100.00;101497.91;10452637;28;20577;-80
2023/06/09 02:31:03;;;;;;;1.20;0.55;;;;;;;17.58;100.00;101494.34;10473363;28;20484;-80
2023/06/09 02:36:05;;;;;;;0.20;0.10;;;;;;;17.86;100.00;101497.13;10471185;28;20045;-80
2023/06/09 02:41:07;;;;;;;1.15;0.38;;;;;;;17.56;100.00;101507.38;10433870;28;20068;-80
2023/06/09 02:46:09;;;;;;;0.70;0.47;;;;;;;17.11;100.00;101494.03;10460727;28;20052;-81
2023/06/09 02:51:11;;;;;;;0.35;0.10;;;;;;;16.78;100.00;101494.56;10445104;28;20048;-80
2023/06/09 02:56:13;;;;;;;0.38;0.22;;;;;;;17.19;100.00;101491.50;10438026;28;20076;-79
2023/06/09 03:01:22;;;;;;;0.35;0.30;;;;;;;17.12;100.00;101494.91;10452683;28;20045;-80
2023/06/09 03:06:25;;;;;;;0.43;0.30;;;;;;;17.09;100.00;101506.13;10467385;28;20041;-80
2023/06/09 03:11:27;;;;;;;3.95;0.52;;;;;;;16.91;100.00;101499.00;10438220;28;20082;-80
2023/06/09 03:16:30;;;;;;;0.25;0.20;;;;;;;17.10;100.00;101497.47;10451238;28;20049;-79
2023/06/09 03:21:35;;;;;;;0.73;0.25;;;;;;;17.14;100.00;101506.19;10455412;28;20067;-79
2023/06/09 03:26:38;;;;;;;1.33;0.30;;;;;;;16.99;100.00;101509.53;10456007;28;20076;-80
2023/06/09 03:31:42;;;;;;;1.10;0.30;;;;;;;17.11;100.00;101500.97;10458590;28;20080;-79
2023/06/09 03:36:44;;;;;;;0.03;0.03;;;;;;;16.89;100.00;101502.47;10450314;28;20048;-79
2023/06/09 03:41:47;;;;;;;0.00;0.00;;;;;;;17.09;100.00;101511.34;10456054;28;20044;-80
2023/06/09 03:46:49;;;;;;;0.43;0.32;;;;;;;17.08;100.00;101503.53;10450680;28;20131;-79
2023/06/09 03:51:51;;;;;;;0.10;0.08;;;;;;;16.61;100.00;101512.59;10437920;28;20053;-79
2023/06/09 03:56:54;;;;;;;0.73;0.35;;;;;;;16.66;100.00;101505.72;10427175;28;20055;-79
2023/06/09 04:01:56;;;;;;;0.13;0.13;;;;;;;17.03;100.00;101505.22;10458156;28;20045;-80
2023/06/09 04:06:59;;;;;;;5.93;0.10;;;;;;;17.18;100.00;101514.88;10449306;28;20040;-80
2023/06/09 04:12:01;;;;;;;0.50;0.40;;;;;;;17.09;100.00;101513.94;10449201;28;20081;-79
2023/06/09 04:17:04;;;;;;;1.80;0.35;;;;;;;17.33;100.00;101515.00;10472460;28;20444;-79
2023/06/09 04:22:07;;;;;;;0.93;0.55;;;;;;;17.18;100.00;101523.59;10434977;28;20048;-79
2023/06/09 04:27:09;;;;;;;0.38;0.20;;;;;;;17.27;100.00;101525.38;10438514;28;20052;-80
2023/06/09 04:32:11;;;;;;;0.10;0.10;;;;;;;17.31;100.00;101537.59;10457360;28;20048;-79
2023/06/09 04:37:13;;;;;;;1.00;0.20;;;;;;;17.11;100.00;101535.66;10449771;28;20450;-79
2023/06/09 04:42:19;;;;;;;0.38;0.15;;;;;;;17.29;100.00;101534.09;10460177;28;20045;-79
2023/06/09 04:47:24;;;;;;;0.75;0.50;;;;;;;17.58;100.00;101525.63;10458931;28;20052;-80
2023/06/09 04:52:27;;;;;;;0.10;0.10;;;;;;;17.64;100.00;101523.06;10461290;28;20453;-80
2023/06/09 04:57:28;;;;;;;0.40;0.22;;;;;;;17.87;100.00;101517.97;10443421;28;20102;-79
2023/06/09 05:02:33;;;;;;;0.40;0.25;;;;;;;18.30;100.00;101517.31;10460359;28;20079;-79
2023/06/09 05:07:39;;;;;;;0.35;0.25;;;;;;;17.98;100.00;101525.91;10454322;28;20045;-79
2023/06/09 05:12:42;;;;;;;0.00;0.00;;;;;;;18.24;100.00;101527.75;10466151;28;20052;-79
2023/06/09 05:17:44;;;;;;;0.80;0.80;;;;;;;18.91;100.00;101525.31;10442307;28;20448;-79
2023/06/09 05:22:46;;;;;;;0.40;0.30;;;;;;;19.02;100.00;101524.47;10436961;28;20041;-79
2023/06/09 05:27:47;;;;;;;0.15;0.08;;;;;;;18.45;100.00;101526.06;10455875;28;20045;-79
2023/06/09 05:32:51;;;;;;;0.05;0.05;;;;;;;18.59;100.00;101528.72;10453628;28;20056;-81
2023/06/09 05:37:55;;;;;;;0.43;0.10;;;;;;;18.43;100.00;101533.03;10442103;28;20055;-80
2023/06/09 05:43:01;;;;;;;0.63;0.47;;;;;;;19.00;100.00;101528.84;10478350;28;20045;-79
2023/06/09 05:48:03;;;;;;;0.20;0.20;;;;;;;19.49;100.00;101521.84;10454434;28;20044;-80
2023/06/09 05:53:05;;;;;;;0.10;0.10;;;;;;;19.53;100.00;101538.38;10454857;28;20510;-79
2023/06/09 05:58:07;;;;;;;0.60;0.55;;;;;;;19.39;100.00;101536.66;10442141;28;20522;-79
2023/06/09 06:03:10;;;;;;;0.03;0.03;;;;;;;19.89;100.00;101529.66;10468203;28;20507;-80
2023/06/09 06:08:12;;;;;;;0.45;0.10;;;;;;;20.73;100.00;101534.53;10455849;28;20049;-79
2023/06/09 06:13:14;;;;;;;1.60;0.95;;;;;;;21.36;100.00;101531.44;10458867;28;20041;-80
2023/06/09 06:18:16;;;;;;;0.88;0.30;;;;;;;20.82;100.00;101525.75;10438385;28;20041;-79
2023/06/09 06:23:18;;;;;;;0.40;0.20;;;;;;;21.33;100.00;101527.97;10462447;28;20045;-80
2023/06/09 06:28:20;;;;;;;0.10;0.10;;;;;;;21.40;100.00;101534.91;10465855;28;20132;-79
2023/06/09 06:33:23;;;;;;;0.47;0.43;;;;;;;21.67;100.00;101530.28;10467953;28;20049;-80
2023/06/09 06:38:25;;;;;;;0.20;0.20;;;;;;;21.61;100.00;101530.34;10465809;28;20052;-80
2023/06/09 06:43:27;;;;;;;0.40;0.38;;;;;;;22.39;100.00;101520.69;10437214;28;20404;-79
2023/06/09 06:48:41;;;;;;;0.65;0.63;;;;;;;22.10;100.00;101524.53;10479312;28;20558;-79
2023/06/09 06:53:42;;;;;;;6.47;0.60;;;;;;;22.50;100.00;101521.44;10452585;28;20049;-80
2023/06/09 06:58:47;;;;;;;1.77;0.70;;;;;;;23.22;100.00;101520.34;10474654;28;20072;-79
2023/06/09 07:03:52;;;;;;;2.72;0.32;;;;;;;23.29;100.00;101520.22;10432084;28;20045;-81
2023/06/09 07:08:54;;;;;;;0.30;0.13;;;;;;;23.66;100.00;101523.09;10442746;28;20052;-81
2023/06/09 07:13:56;;;;;;;0.85;0.22;;;;;;;24.55;100.00;101507.19;10449537;28;20033;-80
2023/06/09 07:18:58;;;;;;;0.10;0.10;;;;;;;25.49;100.00;101514.63;10457893;28;20507;-80
2023/06/09 07:23:59;;;;;;;1.58;0.63;;;;;;;25.03;100.00;101516.63;10448944;28;20036;-79
2023/06/09 07:29:01;;;;;;;0.90;0.57;;;;;;;26.01;100.00;101507.00;10438423;28;20397;-80
2023/06/09 07:34:03;;;;;;;0.17;0.15;;;;;;;26.81;100.00;101509.00;10444745;28;20057;-80
2023/06/09 07:39:08;;;;;;;0.40;0.40;;;;;;;26.59;100.00;101509.66;10448596;28;20049;-82
2023/06/09 07:44:09;;;;;;;0.80;0.50;;;;;;;27.31;96.53;101513.50;10450303;28;20049;-82
2023/06/09 07:49:11;;;;;;;0.73;0.32;;;;;;;26.38;97.60;101507.69;10465156;28;20045;-83
2023/06/09 07:54:13;;;;;;;0.88;0.82;;;;;;;26.93;100.00;101502.44;10457541;28;20556;-80
2023/06/09 07:59:18;;;;;;;0.63;0.40;;;;;;;27.92;96.67;101501.66;10453112;28;20049;-81
2023/06/09 08:04:20;;;;;;;0.28;0.22;;;;;;;27.55;92.99;101509.16;10461202;28;20044;-82
2023/06/09 08:09:22;;;;;;;1.70;0.60;;;;;;;28.23;92.77;101504.91;10466452;28;20045;-82
2023/06/09 08:14:24;;;;;;;1.17;0.50;;;;;;;28.80;90.27;101492.91;10439881;28;20041;-80
2023/06/09 08:19:25;;;;;;;0.17;0.17;;;;;;;28.62;90.83;101505.13;10464441;28;20040;-83
2023/06/09 08:24:27;;;;;;;0.80;0.43;;;;;;;28.65;90.62;101509.41;10474975;28;20035;-82
2023/06/09 08:29:28;;;;;;;0.68;0.30;;;;;;;28.12;87.43;101503.53;10469944;28;20052;-82
2023/06/09 08:34:30;;;;;;;0.80;0.68;;;;;;;28.76;88.06;101499.28;10464866;28;20056;-81
2023/06/09 08:39:32;;;;;;;0.28;0.28;;;;;;;29.57;86.80;101503.84;10453578;28;20144;-81
2023/06/09 08:44:38;;;;;;;0.47;0.35;;;;;;;29.29;85.66;101495.25;10430167;28;20046;-82
2023/06/09 08:49:40;;;;;;;0.20;0.20;;;;;;;29.66;82.66;101486.63;10469205;28;20056;-82
2023/06/09 08:54:44;;;;;;;0.20;0.20;;;;;;;30.50;82.89;101484.50;10468768;28;20056;-81
2023/06/09 08:59:50;;;;;;;4.20;0.47;;;;;;;30.32;81.78;101480.91;10476186;28;20049;-83
2023/06/09 09:04:52;;;;;;;0.65;0.30;;;;;;;31.18;83.03;101469.59;10448134;28;20049;-81
2023/06/09 09:09:54;;;;;;;1.25;0.40;;;;;;;30.73;79.96;101473.63;10473529;28;20488;-81
2023/06/09 09:14:56;;;;;;;1.02;0.77;;;;;;;29.98;79.15;101466.56;10460721;28;20535;-81
2023/06/09 09:19:58;;;;;;;0.20;0.20;;;;;;;31.22;75.90;101473.81;10483084;28;20140;-81
2023/06/09 09:25:00;;;;;;;0.15;0.15;;;;;;;32.47;76.01;101455.47;10461409;28;20060;-81
2023/06/09 09:30:01;;;;;;;0.40;0.35;;;;;;;32.47;73.58;101458.16;10460242;28;20049;-81
2023/06/09 09:35:04;;;;;;;0.40;0.30;;;;;;;31.24;73.33;101452.44;10482912;28;20041;-80
2023/06/09 09:40:13;;;;;;;0.35;0.20;;;;;;;32.32;69.97;101456.38;10459928;28;20055;-82
2023/06/09 09:45:25;;;;;;;0.45;0.38;;;;;;;32.06;70.87;101456.00;10447104;28;20048;-84
2023/06/09 09:50:27;;;;;;;0.82;0.80;;;;;;;32.54;66.38;101451.50;10457429;28;20045;-83
2023/06/09 09:55:29;;;;;;;1.38;0.73;;;;;;;32.75;64.61;101445.84;10457341;28;20056;-83
2023/06/09 10:00:35;;;;;;;5.05;0.30;;;;;;;32.38;62.14;101450.69;10464667;28;20407;-83
2023/06/09 10:05:39;;;;;;;0.43;0.30;;;;;;;32.45;63.18;101446.69;10461568;28;20116;-84
2023/06/09 10:10:42;;;;;;;0.60;0.40;;;;;;;33.06;62.06;101441.34;10451989;28;20078;-81
2023/06/09 10:15:44;;;;;;;1.80;0.35;;;;;;;33.16;58.22;101439.84;10452277;28;20049;-82
2023/06/09 10:20:50;;;;;;;0.20;0.20;;;;;;;33.47;61.99;101435.28;10441143;28;20047;-82
2023/06/09 10:25:52;;;;;;;0.50;0.50;;;;;;;33.83;61.01;101436.59;10435733;28;20053;-85
2023/06/09 10:30:54;;;;;;;1.00;0.95;;;;;;;32.77;59.37;101440.44;10455810;28;20052;-80
2023/06/09 10:35:58;;;;;;;0.30;0.30;;;;;;;33.68;60.39;101437.56;10463406;28;20076;-84
2023/06/09 10:41:34;;;;;;;1.17;0.60;;;;;;;33.18;55.48;101434.41;10443507;28;20049;-80
2023/06/09 10:46:40;;;;;;;0.50;0.35;;;;;;;34.50;59.93;101428.75;10423028;28;20053;-82
2023/06/09 10:51:42;;;;;;;0.38;0.38;;;;;;;32.57;57.09;101431.78;10455254;28;20478;-82
2023/06/09 10:57:03;;;;;;;0.30;0.30;;;;;;;32.98;59.86;101432.97;10458913;28;20396;-82
2023/06/09 11:02:15;;;;;;;0.20;0.20;;;;;;;34.50;55.73;101428.75;10456042;28;20048;-79
2023/06/09 11:07:18;;;;;;;0.50;0.50;;;;;;;33.60;56.83;101421.16;10439198;28;20041;-85
2023/06/09 11:12:42;;;;;;;0.08;0.08;;;;;;;33.87;54.15;101418.56;10462486;28;20060;-81
2023/06/09 11:17:46;;;;;;;0.45;0.28;;;;;;;33.93;57.39;101414.63;10470624;28;20500;-83
2023/06/09 11:22:48;;;;;;;0.32;0.20;;;;;;;34.31;56.05;101408.56;10442493;28;20480;-80
2023/06/09 11:27:56;;;;;;;2.65;1.00;;;;;;;33.08;56.25;101404.75;10463670;28;20518;-84
2023/06/09 11:33:06;;;;;;;0.30;0.30;;;;;;;33.72;56.14;101393.66;10454597;28;20067;-83
2023/06/09 11:38:10;;;;;;;0.50;0.50;;;;;;;33.04;54.17;101398.75;10464848;28;20048;-88
2023/06/09 11:43:12;;;;;;;0.88;0.77;;;;;;;34.14;57.82;101386.47;10454612;28;20059;-83
2023/06/09 11:48:15;;;;;;;0.80;0.50;;;;;;;32.90;54.60;101394.25;10446838;28;20052;-83
2023/06/09 11:53:21;;;;;;;0.65;0.38;;;;;;;33.27;58.52;101384.91;10444305;28;20479;-83
2023/06/09 11:58:22;;;;;;;0.47;0.47;;;;;;;34.18;57.75;101376.41;10454768;28;20075;-81
2023/06/09 12:03:25;;;;;;;0.80;0.30;;;;;;;32.78;53.33;101383.47;10457836;28;20047;-83
2023/06/09 12:08:27;;;;;;;1.15;0.82;;;;;;;33.28;54.98;101375.97;10459023;28;20438;-83
2023/06/09 12:13:29;;;;;;;0.93;0.55;;;;;;;33.25;51.33;101378.84;10454263;28;20075;-81
2023/06/09 12:18:31;;;;;;;0.40;0.30;;;;;;;32.79;51.73;101370.06;10440809;28;20055;-81
2023/06/09 12:23:33;;;;;;;0.52;0.52;;;;;;;33.76;54.74;101359.56;10435711;28;20496;-85
2023/06/09 12:28:35;;;;;;;0.43;0.20;;;;;;;33.35;47.88;101363.97;10459308;28;20053;-84
2023/06/09 12:33:38;;;;;;;0.10;0.10;;;;;;;33.06;48.77;101361.28;10454445;28;20037;-82
2023/06/09 12:38:44;;;;;;;0.52;0.40;;;;;;;33.13;49.39;101351.94;10458694;28;20076;-83
2023/06/09 12:43:50;;;;;;;0.75;0.47;;;;;;;32.95;46.56;101343.28;10435781;28;20053;-84
2023/06/09 12:49:01;;;;;;;0.47;0.47;;;;;;;33.06;49.93;101347.94;10451743;28;20446;-82
2023/06/09 12:54:05;;;;;;;0.65;0.65;;;;;;;32.66;45.97;101350.34;10470679;28;20045;-83
2023/06/09 12:59:06;;;;;;;0.30;0.20;;;;;;;33.02;47.31;101344.59;10436464;28;20076;-86
2023/06/09 13:04:08;;;;;;;1.33;1.02;;;;;;;33.48;51.50;101340.84;10460298;28;20116;-83
2023/06/09 13:09:10;;;;;;;4.75;0.75;;;;;;;32.98;47.65;101347.56;10467527;28;20106;-84
2023/06/09 13:14:12;;;;;;;0.47;0.47;;;;;;;33.10;46.26;101337.94;10432696;28;20099;-83
2023/06/09 13:19:14;;;;;;;0.70;0.40;;;;;;;32.69;49.95;101340.34;10454315;28;20404;-84
2023/06/09 13:24:15;;;;;;;0.22;0.20;;;;;;;33.41;49.52;101336.88;10460512;28;20029;-82
2023/06/09 13:29:17;;;;;;;0.98;0.50;;;;;;;32.64;47.65;101333.59;10457572;28;20052;-82
2023/06/09 13:34:19;;;;;;;0.70;0.70;;;;;;;32.86;45.02;101328.69;10443927;28;20040;-83
2023/06/09 13:39:20;;;;;;;2.03;0.73;;;;;;;33.05;50.29;101320.41;10450969;28;20049;-82
2023/06/09 13:44:22;;;;;;;2.42;1.02;;;;;;;32.11;48.72;101320.69;10466395;28;20060;-84
2023/06/09 13:49:24;;;;;;;0.32;0.32;;;;;;;32.20;50.37;101325.50;10469229;28;20045;-81
2023/06/09 13:54:25;;;;;;;0.20;0.20;;;;;;;32.15;47.16;101318.72;10450830;28;20044;-83
2023/06/09 13:59:27;;;;;;;0.88;0.50;;;;;;;32.37;47.09;101311.19;10464909;28;20051;-80
2023/06/09 14:04:28;;;;;;;3.72;0.50;;;;;;;32.51;48.00;101313.00;10471039;28;20488;-83
2023/06/09 14:09:30;;;;;;;0.20;0.20;;;;;;;32.99;49.88;101303.91;10445295;28;20156;-85
2023/06/09 14:14:32;;;;;;;0.90;0.90;;;;;;;32.21;46.20;101311.22;10441139;28;20045;-81
2023/06/09 14:19:34;;;;;;;1.08;0.63;;;;;;;32.53;47.94;101300.44;10475444;28;20041;-84
2023/06/09 14:24:39;;;;;;;0.20;0.20;;;;;;;32.67;52.32;101299.59;10479469;28;20079;-84
2023/06/09 14:29:40;;;;;;;0.45;0.22;;;;;;;32.45;49.69;101307.19;10461792;28;20056;-81
2023/06/09 14:34:42;;;;;;;1.20;0.57;;;;;;;32.47;46.75;101300.81;10453228;28;20123;-80
2023/06/09 14:39:44;;;;;;;0.85;0.38;;;;;;;32.76;49.93;101284.81;10452565;28;20500;-81
2023/06/09 14:44:46;;;;;;;1.52;0.63;;;;;;;32.16;53.37;101291.13;10438417;28;20095;-83
2023/06/09 14:49:47;;;;;;;1.40;0.60;;;;;;;31.32;51.89;101296.69;10454907;28;20045;-82
2023/06/09 14:54:50;;;;;;;0.75;0.45;;;;;;;32.25;53.46;101294.13;10450535;28;20041;-81
2023/06/09 14:59:52;;;;;;;0.35;0.35;;;;;;;32.12;51.63;101285.09;10457542;28;20144;-83
2023/06/09 15:04:53;;;;;;;5.47;0.85;;;;;;;32.11;49.56;101278.06;10449365;28;20033;-82
2023/06/09 15:09:59;;;;;;;0.35;0.35;;;;;;;32.26;49.60;101282.50;10447993;28;20059;-83
2023/06/09 15:15:01;;;;;;;0.80;0.47;;;;;;;31.76;48.11;101284.50;10436525;28;20072;-83
2023/06/09 15:20:03;;;;;;;0.60;0.40;;;;;;;32.28;50.22;101277.91;10452449;28;20048;-82
2023/06/09 15:25:09;;;;;;;0.45;0.30;;;;;;;32.30;48.59;101263.66;10446015;28;20047;-82
2023/06/09 15:30:11;;;;;;;1.80;0.98;;;;;;;32.32;50.21;101275.09;10446981;28;20049;-83
2023/06/09 15:35:13;;;;;;;0.80;0.43;;;;;;;31.38;50.80;101273.34;10453270;28;20056;-81
2023/06/09 15:40:15;;;;;;;0.47;0.35;;;;;;;30.94;49.13;101270.34;10454834;28;20049;-82
2023/06/09 15:45:16;;;;;;;0.17;0.10;;;;;;;31.50;48.28;101267.31;10453337;28;20223;-80
2023/06/09 15:50:18;;;;;;;0.50;0.50;;;;;;;31.88;51.13;101266.94;10464754;28;20048;-85
2023/06/09 15:55:20;;;;;;;0.65;0.65;;;;;;;32.06;51.81;101269.47;10433509;28;20041;-81
2023/06/09 16:00:22;;;;;;;1.50;1.13;;;;;;;32.37;51.56;101251.66;10453714;28;20047;-80
2023/06/09 16:05:41;;;;;;;0.40;0.40;;;;;;;32.02;50.78;101258.13;10432178;28;20496;-81
2023/06/09 16:10:45;;;;;;;0.90;0.60;;;;;;;32.18;49.63;101266.09;10465614;28;20048;-82
2023/06/09 16:15:47;;;;;;;1.17;0.52;;;;;;;32.24;52.19;101256.91;10446913;28;20083;-82
2023/06/09 16:20:49;;;;;;;1.45;0.95;;;;;;;31.98;52.15;101250.44;10441997;28;20414;-82
2023/06/09 16:25:51;;;;;;;0.90;0.65;;;;;;;31.75;48.92;101249.97;10446173;28;20094;-83
2023/06/09 16:30:52;;;;;;;0.30;0.28;;;;;;;31.72;51.68;101250.13;10444868;28;20052;-83
2023/06/09 16:35:54;;;;;;;0.32;0.32;;;;;;;31.91;49.94;101250.75;10422715;28;20045;-82
2023/06/09 16:40:56;;;;;;;0.43;0.32;;;;;;;31.61;50.85;101243.59;10433476;28;20488;-82
2023/06/09 16:45:57;;;;;;;0.68;0.45;;;;;;;32.08;53.47;101249.78;10417859;28;20611;-83
2023/06/09 16:51:02;;;;;;;0.20;0.20;;;;;;;31.62;50.50;101247.97;10436663;28;20044;-82
2023/06/09 16:56:05;;;;;;;0.98;0.43;;;;;;;31.49;53.79;101250.50;10452666;28;20385;-83
2023/06/09 17:01:06;;;;;;;1.33;0.40;;;;;;;31.38;55.57;101249.41;10433450;28;20045;-82
2023/06/09 17:06:08;;;;;;;0.45;0.30;;;;;;;31.54;55.08;101246.72;10464155;28;20052;-82
2023/06/09 17:11:10;;;;;;;0.57;0.47;;;;;;;31.77;59.48;101256.06;10460713;28;20049;-81
2023/06/09 17:16:11;;;;;;;0.65;0.50;;;;;;;31.28;57.99;101255.22;10436315;28;20052;-83
2023/06/09 17:21:13;;;;;;;0.63;0.40;;;;;;;31.27;56.17;101261.50;10431196;28;20048;-81
2023/06/09 17:26:15;;;;;;;0.25;0.25;;;;;;;31.32;56.34;101267.41;10447021;28;20075;-83
2023/06/09 17:31:16;;;;;;;0.32;0.28;;;;;;;31.69;58.69;101263.63;10436306;28;20447;-81
2023/06/09 17:36:19;;;;;;;0.85;0.60;;;;;;;31.11;58.34;101264.16;10460476;28;20440;-82
2023/06/09 17:41:21;;;;;;;0.98;0.63;;;;;;;31.03;55.66;101263.69;10435209;28;20046;-82
2023/06/09 17:46:23;;;;;;;0.30;0.30;;;;;;;31.61;58.72;101264.06;10449645;28;20040;-82
2023/06/09 17:51:25;;;;;;;0.15;0.15;;;;;;;31.51;56.58;101274.38;10432232;28;20121;-82
2023/06/09 17:56:27;;;;;;;0.43;0.22;;;;;;;31.10;56.96;101265.09;10438587;28;20048;-81
2023/06/09 18:01:29;;;;;;;0.85;0.73;;;;;;;30.45;57.88;101278.28;10449499;28;20083;-83
2023/06/09 18:06:30;;;;;;;0.65;0.40;;;;;;;30.33;61.63;101285.97;10440770;28;20514;-83
2023/06/09 18:11:32;;;;;;;3.13;0.77;;;;;;;30.47;65.95;101295.00;10447853;28;20052;-81
2023/06/09 18:16:34;;;;;;;0.40;0.40;;;;;;;30.41;65.69;101295.34;10433641;28;20405;-82
2023/06/09 18:21:36;;;;;;;0.30;0.30;;;;;;;30.30;66.09;101295.88;10433405;28;20094;-81
2023/06/09 18:26:38;;;;;;;0.68;0.30;;;;;;;29.85;65.56;101301.59;10448941;28;20048;-82
2023/06/09 18:31:40;;;;;;;0.52;0.30;;;;;;;29.84;65.69;101307.84;10460407;28;20396;-81
2023/06/09 18:36:41;;;;;;;0.65;0.32;;;;;;;30.16;66.57;101312.53;10443886;28;20271;-81
2023/06/09 18:41:43;;;;;;;0.45;0.30;;;;;;;29.51;67.74;101315.66;10459201;28;20049;-81
2023/06/09 18:46:45;;;;;;;0.45;0.45;;;;;;;29.59;68.36;101316.16;10428766;28;20096;-81
2023/06/09 18:51:47;;;;;;;0.32;0.32;;;;;;;29.12;69.50;101326.22;10434544;28;20500;-81
2023/06/09 18:56:49;;;;;;;0.50;0.50;;;;;;;29.49;69.00;101331.63;10447838;28;20119;-81
2023/06/09 19:01:50;;;;;;;0.20;0.20;;;;;;;29.23;71.23;101328.38;10455536;28;20499;-81
2023/06/09 19:06:53;;;;;;;0.40;0.40;;;;;;;29.07;70.95;101341.50;10445571;28;20045;-82
2023/06/09 19:11:55;;;;;;;0.25;0.22;;;;;;;28.80;71.40;101336.47;10447187;28;20419;-81
2023/06/09 19:16:56;;;;;;;0.65;0.35;;;;;;;28.45;73.17;101353.88;10447194;28;20083;-81
2023/06/09 19:21:58;;;;;;;0.40;0.40;;;;;;;28.53;72.55;101358.84;10443430;28;20132;-81
2023/06/09 19:26:59;;;;;;;0.32;0.32;;;;;;;28.41;73.29;101362.88;10440442;28;20049;-81
2023/06/09 19:32:01;;;;;;;0.63;0.47;;;;;;;28.34;73.72;101364.91;10449135;28;20047;-81
2023/06/09 19:37:04;;;;;;;0.63;0.55;;;;;;;27.88;72.27;101367.63;10436895;28;20041;-83
2023/06/09 19:42:06;;;;;;;4.50;1.63;;;;;;;27.92;71.45;101371.00;10446524;28;20052;-81
2023/06/09 19:47:07;;;;;;;0.52;0.45;;;;;;;27.70;71.44;101379.81;10457405;28;20044;-82
2023/06/09 19:52:09;;;;;;;1.02;0.50;;;;;;;27.76;69.41;101386.66;10456753;28;20531;-81
2023/06/09 19:57:11;;;;;;;1.00;0.60;;;;;;;27.71;69.85;101395.63;10444021;28;20045;-80
2023/06/09 20:02:14;;;;;;;0.30;0.30;;;;;;;27.43;69.61;101406.41;10455799;28;20049;-80
2023/06/09 20:07:20;;;;;;;0.40;0.38;;;;;;;27.55;68.59;101415.66;10460538;28;20044;-80
2023/06/09 20:12:22;;;;;;;0.30;0.20;;;;;;;27.30;69.10;101423.59;10460611;28;20111;-80
2023/06/09 20:17:24;;;;;;;0.65;0.65;;;;;;;27.69;68.11;101423.94;10430757;28;20103;-81
2023/06/09 20:22:27;;;;;;;0.30;0.30;;;;;;;27.32;69.06;101430.56;10464926;28;20041;-80
2023/06/09 20:27:29;;;;;;;0.10;0.10;;;;;;;27.33;68.97;101431.44;10454329;28;20089;-80
2023/06/09 20:32:31;;;;;;;0.85;0.35;;;;;;;27.16;68.89;101438.19;10453993;28;20546;-80
2023/06/09 20:37:33;;;;;;;0.25;0.20;;;;;;;26.78;69.91;101439.50;10436779;28;20529;-80
2023/06/09 20:42:34;;;;;;;0.52;0.38;;;;;;;26.76;70.83;101439.56;10452873;28;20057;-80
2023/06/09 20:47:37;;;;;;;0.20;0.20;;;;;;;26.64;70.66;101442.56;10437081;28;20403;-80
2023/06/09 20:52:38;;;;;;;0.32;0.20;;;;;;;26.62;70.64;101441.78;10446311;28;20053;-80
2023/06/09 20:57:40;;;;;;;0.52;0.30;;;;;;;26.42;71.41;101441.50;10453825;28;20411;-80
2023/06/09 21:02:47;;;;;;;0.10;0.10;;;;;;;26.28;71.95;101455.16;10460229;28;20083;-80
2023/06/09 21:07:49;;;;;;;0.28;0.15;;;;;;;26.17;71.53;101444.06;10452700;28;20466;-81
2023/06/09 21:12:50;;;;;;;1.15;0.32;;;;;;;26.07;73.29;101450.50;10471188;28;20399;-80
2023/06/09 21:17:52;;;;;;;0.15;0.10;;;;;;;26.11;72.97;101462.72;10452084;28;20186;-81
2023/06/09 21:22:55;;;;;;;0.45;0.38;;;;;;;26.15;72.19;101456.44;10451929;28;20055;-81
2023/06/09 21:27:59;;;;;;;0.20;0.20;;;;;;;26.17;72.88;101461.69;10460006;28;20594;-81
2023/06/09 21:33:05;;;;;;;0.10;0.10;;;;;;;25.84;73.66;101465.25;10457648;28;20045;-81
2023/06/09 21:38:07;;;;;;;0.20;0.20;;;;;;;24.96;81.18;101468.50;10448016;28;20044;-81
2023/06/09 21:43:09;;;;;;;1.95;0.68;;;;;;;24.28;84.43;101470.06;10447929;28;20049;-81
2023/06/09 21:48:11;;;;;;;0.10;0.10;;;;;;;24.63;82.92;101468.38;10439875;28;20515;-81
2023/06/09 21:53:12;;;;;;;0.10;0.10;;;;;;;24.53;83.51;101469.50;10436574;28;20496;-81
2023/06/09 21:58:14;;;;;;;0.28;0.13;;;;;;;24.32;85.84;101471.72;10443622;28;20083;-81
2023/06/09 22:03:16;;;;;;;0.22;0.20;;;;;;;23.95;84.95;101483.06;10449713;28;20041;-80
2023/06/09 22:08:17;;;;;;;0.75;0.43;;;;;;;24.55;83.33;101479.09;10434330;28;20535;-81
2023/06/09 22:13:20;;;;;;;3.28;0.50;;;;;;;23.79;91.65;101489.53;10438236;28;20415;-81
2023/06/09 22:18:22;;;;;;;0.25;0.25;;;;;;;23.51;94.18;101492.66;10444802;28;20762;-81
2023/06/09 22:23:40;;;;;;;0.10;0.10;;;;;;;23.33;94.97;101493.88;10449020;28;20091;-81
2023/06/09 22:28:42;;;;;;;0.55;0.43;;;;;;;23.31;93.97;101490.44;10432595;28;20056;-81
2023/06/09 22:33:45;;;;;;;0.63;0.28;;;;;;;23.90;90.23;101479.63;10447918;28;20141;-81
2023/06/09 22:38:50;;;;;;;0.10;0.10;;;;;;;23.28;94.66;101492.22;10460181;28;20051;-81
2023/06/09 22:43:52;;;;;;;1.65;0.55;;;;;;;22.70;99.25;101486.13;10438513;28;20049;-81
2023/06/09 22:48:54;;;;;;;0.73;0.30;;;;;;;22.86;97.26;101488.50;10444603;28;20045;-81
2023/06/09 22:53:58;;;;;;;0.57;0.32;;;;;;;23.13;96.02;101482.78;10446587;28;20045;-81
2023/06/09 22:59:00;;;;;;;0.55;0.43;;;;;;;23.40;94.31;101485.84;10422487;28;20048;-81
2023/06/09 23:04:12;;;;;;;1.17;0.47;;;;;;;23.25;94.55;101484.38;10446423;28;20044;-82
2023/06/09 23:09:13;;;;;;;6.35;0.85;;;;;;;23.47;93.76;101480.47;10436665;28;20075;-80